createdAt,value
2018-12-29T00:00:21.386Z,29.10
2018-12-29T00:01:21.377Z,31.80
2018-12-29T00:02:21.364Z,29.30
2018-12-29T00:03:21.359Z,28.70
2018-12-29T00:04:21.364Z,28.80
2018-12-29T00:05:21.335Z,32.80
2018-12-29T00:06:21.330Z,31.30
2018-12-29T00:07:21.312Z,31.40
2018-12-29T00:08:21.301Z,30.30
2018-12-29T00:09:21.304Z,28.90
2018-12-29T00:10:21.282Z,28.80
2018-12-29T00:11:21.269Z,29.60
2018-12-29T00:12:21.260Z,30.50
2018-12-29T00:13:21.248Z,29.10
2018-12-29T00:14:21.245Z,29.60
2018-12-29T00:15:21.227Z,29.00
2018-12-29T00:16:21.234Z,27.80
2018-12-29T00:17:21.208Z,28.80
2018-12-29T00:18:21.191Z,27.50
2018-12-29T00:19:21.195Z,28.50
2018-12-29T00:20:21.173Z,29.90
2018-12-29T00:21:21.163Z,28.10
2018-12-29T00:22:21.154Z,29.00
2018-12-29T00:23:21.144Z,32.00
2018-12-29T00:24:21.147Z,29.70
2018-12-29T00:25:21.121Z,33.60
2018-12-29T00:26:21.109Z,31.40
2018-12-29T00:27:21.097Z,30.20
2018-12-29T00:28:21.095Z,29.30
2018-12-29T00:29:21.116Z,29.80
2018-12-29T00:30:21.064Z,28.90
2018-12-29T00:31:21.054Z,29.40
2018-12-29T00:32:21.044Z,29.30
2018-12-29T00:33:21.036Z,30.60
2018-12-29T00:34:21.024Z,31.30
2018-12-29T00:35:21.022Z,31.50
2018-12-29T00:36:21.002Z,31.60
2018-12-29T00:37:20.991Z,30.60
2018-12-29T00:38:20.978Z,28.60
2018-12-29T00:39:20.973Z,27.10
2018-12-29T00:40:20.968Z,29.80
2018-12-29T00:41:20.946Z,29.10
2018-12-29T00:42:20.936Z,29.00
2018-12-29T00:43:20.925Z,28.90
2018-12-29T00:44:20.916Z,29.90
2018-12-29T00:45:20.915Z,29.60
2018-12-29T00:46:20.894Z,30.60
2018-12-29T00:47:20.884Z,31.00
2018-12-29T00:48:20.871Z,30.50
2018-12-29T00:49:20.862Z,28.90
2018-12-29T00:50:20.897Z,30.70
2018-12-29T00:51:20.846Z,34.50
2018-12-29T00:52:20.833Z,32.90
2018-12-29T00:53:20.822Z,30.90
2018-12-29T00:54:20.809Z,30.50
2018-12-29T00:55:20.800Z,30.60
2018-12-29T00:56:20.800Z,33.30
2018-12-29T00:57:20.775Z,32.50
2018-12-29T00:58:20.764Z,31.90
2018-12-29T00:59:20.752Z,34.10
2018-12-29T01:00:20.745Z,34.70
2018-12-29T01:01:20.745Z,33.70
2018-12-29T01:02:20.721Z,35.50
2018-12-29T01:03:20.710Z,33.40
2018-12-29T01:04:20.700Z,35.00
2018-12-29T01:05:20.689Z,35.00
2018-12-29T01:06:20.692Z,34.80
2018-12-29T01:07:20.667Z,33.90
2018-12-29T01:08:20.657Z,34.80
2018-12-29T01:09:20.649Z,35.90
2018-12-29T01:10:20.638Z,35.00
2018-12-29T01:11:20.637Z,33.00
2018-12-29T01:12:20.621Z,35.50
2018-12-29T01:13:20.611Z,38.40
2018-12-29T01:14:20.595Z,36.70
2018-12-29T01:15:20.580Z,36.80
2018-12-29T01:16:20.588Z,34.60
2018-12-29T01:17:20.562Z,33.80
2018-12-29T01:18:20.551Z,33.30
2018-12-29T01:19:20.540Z,36.40
2018-12-29T01:20:20.530Z,33.70
2018-12-29T01:21:20.530Z,36.60
2018-12-29T01:22:20.509Z,36.90
2018-12-29T01:23:20.501Z,36.40
2018-12-29T01:24:20.489Z,35.90
2018-12-29T01:25:20.475Z,36.40
2018-12-29T01:26:20.496Z,35.50
2018-12-29T01:27:21.212Z,34.10
2018-12-29T01:28:20.629Z,34.20
2018-12-29T01:29:20.433Z,34.80
2018-12-29T01:30:20.426Z,36.20
2018-12-29T01:31:20.411Z,35.30
2018-12-29T01:32:20.416Z,34.70
2018-12-29T01:33:20.412Z,36.40
2018-12-29T01:34:20.379Z,36.00
2018-12-29T01:35:20.372Z,36.90
2018-12-29T01:36:20.360Z,36.30
2018-12-29T01:37:20.365Z,35.50
2018-12-29T01:38:20.338Z,36.20
2018-12-29T01:39:20.328Z,38.60
2018-12-29T01:40:20.320Z,35.50
2018-12-29T01:41:20.307Z,36.50
2018-12-29T01:42:20.305Z,37.90
2018-12-29T01:43:20.283Z,39.20
2018-12-29T01:44:20.274Z,36.60
2018-12-29T01:45:20.264Z,38.40
2018-12-29T01:46:20.251Z,39.30
2018-12-29T01:47:20.252Z,36.40
2018-12-29T01:48:20.228Z,37.90
2018-12-29T01:49:20.220Z,42.70
2018-12-29T01:50:20.206Z,39.90
2018-12-29T01:51:20.199Z,40.00
2018-12-29T01:52:20.202Z,40.80
2018-12-29T01:53:20.175Z,38.20
2018-12-29T01:54:20.166Z,41.10
2018-12-29T01:55:20.161Z,40.00
2018-12-29T01:56:20.143Z,42.40
2018-12-29T01:57:20.142Z,41.60
2018-12-29T01:58:20.123Z,45.70
2018-12-29T01:59:20.116Z,43.20
2018-12-29T02:00:20.101Z,40.30
2018-12-29T02:01:20.092Z,40.20
2018-12-29T02:02:20.102Z,41.40
2018-12-29T02:03:20.072Z,41.60
2018-12-29T02:04:20.058Z,43.50
2018-12-29T02:05:20.046Z,43.60
2018-12-29T02:06:20.037Z,41.60
2018-12-29T02:07:20.026Z,42.80
2018-12-29T02:08:20.025Z,42.90
2018-12-29T02:09:20.003Z,43.20
2018-12-29T02:10:19.994Z,43.60
2018-12-29T02:11:19.983Z,45.40
2018-12-29T02:12:19.973Z,47.70
2018-12-29T02:13:19.974Z,46.40
2018-12-29T02:14:19.949Z,46.30
2018-12-29T02:15:24.715Z,43.80
2018-12-29T02:16:20.930Z,44.10
2018-12-29T02:17:19.918Z,47.00
2018-12-29T02:18:19.918Z,44.30
2018-12-29T02:19:19.900Z,49.40
2018-12-29T02:20:19.890Z,46.20
2018-12-29T02:21:19.876Z,45.20
2018-12-29T02:22:19.866Z,49.60
2018-12-29T02:23:19.868Z,48.60
2018-12-29T02:24:19.846Z,49.40
2018-12-29T02:25:19.836Z,50.70
2018-12-29T02:26:19.824Z,44.90
2018-12-29T02:27:19.811Z,46.50
2018-12-29T02:28:19.811Z,46.40
2018-12-29T02:29:19.790Z,45.60
2018-12-29T02:30:19.785Z,46.00
2018-12-29T02:31:19.768Z,43.30
2018-12-29T02:32:19.756Z,51.70
2018-12-29T02:33:19.764Z,48.30
2018-12-29T02:34:19.737Z,48.40
2018-12-29T02:35:19.725Z,47.30
2018-12-29T02:36:19.711Z,46.50
2018-12-29T02:37:19.705Z,50.30
2018-12-29T02:38:19.704Z,45.00
2018-12-29T02:39:19.683Z,43.70
2018-12-29T02:40:19.675Z,45.00
2018-12-29T02:41:19.663Z,44.00
2018-12-29T02:42:19.652Z,43.60
2018-12-29T02:43:19.670Z,44.70
2018-12-29T02:44:19.628Z,50.30
2018-12-29T02:45:19.622Z,46.00
2018-12-29T02:46:19.609Z,45.70
2018-12-29T02:47:19.595Z,45.10
2018-12-29T02:48:19.584Z,42.70
2018-12-29T02:49:19.587Z,45.70
2018-12-29T02:50:19.563Z,44.20
2018-12-29T02:51:19.563Z,45.90
2018-12-29T02:52:19.543Z,44.10
2018-12-29T02:53:19.530Z,42.80
2018-12-29T02:54:19.536Z,42.70
2018-12-29T02:55:19.510Z,43.30
2018-12-29T02:56:19.498Z,41.00
2018-12-29T02:57:19.489Z,42.20
2018-12-29T02:58:19.477Z,42.30
2018-12-29T02:59:19.483Z,39.80
2018-12-29T03:00:19.458Z,43.90
2018-12-29T03:01:19.446Z,44.30
2018-12-29T03:02:19.438Z,43.10
2018-12-29T03:03:19.424Z,45.80
2018-12-29T03:04:19.427Z,44.40
2018-12-29T03:05:19.404Z,42.10
2018-12-29T03:06:19.399Z,43.40
2018-12-29T03:07:19.382Z,42.10
2018-12-29T03:08:19.373Z,43.00
2018-12-29T03:09:19.374Z,42.50
2018-12-29T03:10:19.349Z,43.40
2018-12-29T03:11:19.346Z,41.40
2018-12-29T03:12:19.328Z,41.80
2018-12-29T03:13:19.320Z,42.70
2018-12-29T03:14:19.331Z,44.40
2018-12-29T03:15:19.304Z,47.30
2018-12-29T03:16:19.292Z,45.00
2018-12-29T03:17:19.274Z,45.90
2018-12-29T03:18:19.266Z,42.30
2018-12-29T03:19:19.285Z,42.20
2018-12-29T03:20:19.247Z,42.10
2018-12-29T03:21:19.237Z,50.80
2018-12-29T03:22:19.225Z,46.70
2018-12-29T03:23:19.217Z,44.70
2018-12-29T03:24:19.205Z,46.20
2018-12-29T03:25:19.205Z,43.30
2018-12-29T03:26:19.181Z,45.00
2018-12-29T03:27:19.172Z,43.80
2018-12-29T03:28:19.163Z,44.60
2018-12-29T03:29:19.149Z,42.30
2018-12-29T03:30:19.150Z,45.30
2018-12-29T03:31:19.136Z,43.40
2018-12-29T03:32:19.117Z,42.30
2018-12-29T03:33:19.104Z,44.10
2018-12-29T03:34:19.099Z,44.90
2018-12-29T03:35:19.095Z,45.10
2018-12-29T03:36:19.076Z,47.50
2018-12-29T03:37:19.070Z,45.30
2018-12-29T03:38:19.056Z,44.40
2018-12-29T03:39:19.041Z,46.20
2018-12-29T03:40:19.047Z,45.30
2018-12-29T03:41:19.028Z,47.00
2018-12-29T03:42:19.013Z,40.80
2018-12-29T03:43:19.002Z,42.70
2018-12-29T03:44:18.989Z,43.10
2018-12-29T03:45:18.992Z,44.30
2018-12-29T03:46:18.968Z,42.60
2018-12-29T03:47:18.960Z,44.40
2018-12-29T03:48:18.945Z,46.50
2018-12-29T03:49:18.939Z,42.50
2018-12-29T03:50:18.937Z,41.20
2018-12-29T03:51:18.913Z,44.10
2018-12-29T03:52:18.902Z,44.00
2018-12-29T03:53:18.889Z,41.90
2018-12-29T03:54:18.878Z,43.10
2018-12-29T03:55:18.882Z,44.40
2018-12-29T03:56:18.862Z,48.10
2018-12-29T03:57:18.846Z,49.50
2018-12-29T03:58:18.843Z,46.30
2018-12-29T03:59:18.827Z,50.70
2018-12-29T04:00:18.868Z,45.30
2018-12-29T04:01:18.803Z,43.40
2018-12-29T04:02:18.794Z,41.50
2018-12-29T04:03:18.780Z,45.60
2018-12-29T04:04:18.772Z,44.00
2018-12-29T04:05:18.760Z,43.00
2018-12-29T04:06:18.764Z,44.20
2018-12-29T04:07:18.740Z,43.80
2018-12-29T04:08:18.735Z,41.60
2018-12-29T04:09:18.720Z,42.70
2018-12-29T04:10:18.708Z,40.90
2018-12-29T04:11:18.709Z,44.10
2018-12-29T04:12:18.686Z,42.40
2018-12-29T04:13:18.675Z,42.70
2018-12-29T04:14:18.664Z,42.60
2018-12-29T04:15:18.652Z,44.10
2018-12-29T04:16:18.657Z,44.50
2018-12-29T04:17:18.632Z,47.20
2018-12-29T04:18:18.621Z,45.20
2018-12-29T04:19:18.613Z,44.00
2018-12-29T04:20:18.601Z,45.10
2018-12-29T04:21:18.599Z,42.60
2018-12-29T04:22:18.576Z,44.50
2018-12-29T04:23:18.567Z,45.60
2018-12-29T04:24:18.554Z,47.50
2018-12-29T04:25:18.546Z,46.30
2018-12-29T04:26:18.543Z,44.90
2018-12-29T04:27:18.521Z,43.30
2018-12-29T04:28:18.512Z,47.50
2018-12-29T04:29:18.502Z,44.40
2018-12-29T04:30:18.495Z,43.90
2018-12-29T04:31:18.517Z,48.60
2018-12-29T04:32:18.466Z,45.90
2018-12-29T04:33:18.457Z,49.60
2018-12-29T04:34:18.451Z,45.60
2018-12-29T04:35:18.436Z,48.60
2018-12-29T04:36:18.426Z,51.10
2018-12-29T04:37:18.423Z,49.20
2018-12-29T04:38:18.402Z,46.50
2018-12-29T04:39:18.395Z,46.80
2018-12-29T04:40:18.384Z,48.70
2018-12-29T04:41:18.372Z,54.40
2018-12-29T04:42:18.369Z,49.40
2018-12-29T04:43:18.346Z,45.50
2018-12-29T04:44:18.338Z,49.60
2018-12-29T04:45:18.329Z,49.00
2018-12-29T04:46:18.319Z,47.40
2018-12-29T04:47:18.317Z,54.20
2018-12-29T04:48:18.294Z,48.70
2018-12-29T04:49:18.288Z,48.00
2018-12-29T04:50:18.272Z,50.10
2018-12-29T04:51:18.264Z,57.80
2018-12-29T04:52:18.268Z,48.60
2018-12-29T04:53:18.240Z,48.40
2018-12-29T04:54:18.231Z,53.30
2018-12-29T04:55:18.222Z,48.70
2018-12-29T04:56:18.208Z,52.60
2018-12-29T04:57:18.211Z,52.60
2018-12-29T04:58:18.188Z,53.00
2018-12-29T04:59:18.178Z,50.70
2018-12-29T05:00:18.166Z,49.30
2018-12-29T05:01:18.158Z,51.70
2018-12-29T05:02:18.155Z,48.10
2018-12-29T05:03:18.133Z,49.90
2018-12-29T05:04:18.123Z,48.70
2018-12-29T05:05:18.110Z,54.20
2018-12-29T05:06:18.102Z,54.40
2018-12-29T05:07:18.393Z,51.20
2018-12-29T05:08:18.079Z,53.70
2018-12-29T05:09:18.067Z,51.40
2018-12-29T05:10:18.078Z,51.70
2018-12-29T05:11:18.045Z,54.20
2018-12-29T05:12:18.041Z,52.90
2018-12-29T05:13:18.036Z,49.80
2018-12-29T05:14:18.017Z,50.90
2018-12-29T05:15:18.006Z,49.70
2018-12-29T05:16:18.000Z,53.90
2018-12-29T05:17:17.980Z,54.30
2018-12-29T05:18:17.982Z,50.30
2018-12-29T05:19:17.958Z,48.70
2018-12-29T05:20:17.947Z,49.70
2018-12-29T05:21:17.941Z,49.80
2018-12-29T05:22:17.929Z,47.40
2018-12-29T05:23:17.929Z,49.70
2018-12-29T05:24:17.903Z,48.50
2018-12-29T05:25:17.901Z,50.50
2018-12-29T05:26:17.885Z,50.40
2018-12-29T05:27:17.876Z,48.60
2018-12-29T05:28:17.888Z,48.90
2018-12-29T05:29:17.849Z,48.40
2018-12-29T05:30:17.840Z,48.30
2018-12-29T05:31:17.832Z,46.50
2018-12-29T05:32:17.819Z,46.10
2018-12-29T05:33:17.826Z,51.80
2018-12-29T05:34:17.802Z,48.40
2018-12-29T05:35:17.785Z,49.10
2018-12-29T05:36:17.780Z,48.40
2018-12-29T05:37:17.767Z,50.40
2018-12-29T05:38:17.772Z,48.60
2018-12-29T05:39:17.756Z,50.40
2018-12-29T05:40:17.735Z,49.70
2018-12-29T05:41:17.723Z,48.80
2018-12-29T05:42:17.712Z,46.80
2018-12-29T05:43:17.731Z,47.00
2018-12-29T05:44:17.695Z,52.70
2018-12-29T05:45:17.679Z,47.20
2018-12-29T05:46:20.517Z,48.60
2018-12-29T05:47:17.656Z,50.80
2018-12-29T05:48:17.654Z,48.50
2018-12-29T05:49:17.658Z,51.00
2018-12-29T05:50:17.628Z,47.50
2018-12-29T05:51:17.621Z,50.30
2018-12-29T05:52:17.609Z,50.10
2018-12-29T05:53:17.672Z,54.90
2018-12-29T05:54:17.592Z,53.70
2018-12-29T05:55:17.571Z,51.40
2018-12-29T05:56:17.952Z,51.50
2018-12-29T05:57:17.551Z,52.60
2018-12-29T05:58:17.540Z,55.10
2018-12-29T05:59:17.542Z,50.70
2018-12-29T06:00:17.517Z,50.20
2018-12-29T06:01:17.514Z,49.10
2018-12-29T06:02:17.497Z,46.10
2018-12-29T06:03:17.488Z,46.40
2018-12-29T06:04:17.489Z,50.30
2018-12-29T06:05:17.466Z,48.40
2018-12-29T06:06:17.453Z,47.40
2018-12-29T06:07:17.441Z,48.00
2018-12-29T06:08:17.437Z,46.60
2018-12-29T06:09:17.432Z,49.00
2018-12-29T06:10:17.410Z,48.40
2018-12-29T06:11:17.400Z,48.90
2018-12-29T06:12:17.390Z,47.80
2018-12-29T06:13:17.378Z,44.80
2018-12-29T06:14:17.378Z,47.40
2018-12-29T06:15:17.355Z,49.00
2018-12-29T06:16:17.348Z,45.20
2018-12-29T06:17:17.334Z,50.30
2018-12-29T06:18:17.325Z,54.00
2018-12-29T06:19:17.345Z,47.80
2018-12-29T06:20:17.302Z,48.60
2018-12-29T06:21:17.294Z,50.10
2018-12-29T06:22:17.290Z,48.80
2018-12-29T06:23:17.269Z,52.30
2018-12-29T06:24:17.256Z,49.00
2018-12-29T06:25:17.264Z,54.50
2018-12-29T06:26:17.239Z,52.10
2018-12-29T06:27:17.231Z,49.80
2018-12-29T06:28:17.226Z,48.80
2018-12-29T06:29:17.205Z,47.90
2018-12-29T06:30:17.210Z,49.20
2018-12-29T06:31:17.182Z,51.40
2018-12-29T06:32:17.175Z,52.60
2018-12-29T06:33:17.166Z,55.90
2018-12-29T06:34:17.167Z,49.30
2018-12-29T06:35:17.881Z,48.00
2018-12-29T06:36:17.132Z,46.70
2018-12-29T06:37:17.114Z,48.60
2018-12-29T06:38:17.107Z,51.00
2018-12-29T06:39:17.097Z,54.80
2018-12-29T06:40:17.083Z,48.50
2018-12-29T06:41:17.085Z,48.90
2018-12-29T06:42:17.063Z,47.50
2018-12-29T06:43:17.052Z,50.00
2018-12-29T06:44:17.046Z,48.40
2018-12-29T06:45:17.034Z,49.10
2018-12-29T06:46:17.030Z,50.50
2018-12-29T06:47:17.006Z,49.20
2018-12-29T06:48:17.003Z,48.40
2018-12-29T06:49:16.989Z,47.40
2018-12-29T06:50:16.997Z,50.10
2018-12-29T06:51:16.976Z,49.80
2018-12-29T06:52:16.952Z,52.10
2018-12-29T06:53:16.945Z,53.30
2018-12-29T06:54:16.936Z,53.60
2018-12-29T06:55:16.925Z,55.20
2018-12-29T06:56:16.923Z,54.30
2018-12-29T06:57:16.899Z,53.30
2018-12-29T06:58:16.890Z,56.30
2018-12-29T06:59:16.878Z,57.50
2018-12-29T07:00:16.873Z,58.00
2018-12-29T07:01:16.868Z,58.90
2018-12-29T07:02:16.845Z,54.60
2018-12-29T07:03:16.839Z,55.20
2018-12-29T07:04:16.826Z,54.00
2018-12-29T07:05:16.814Z,53.40
2018-12-29T07:06:16.816Z,60.30
2018-12-29T07:07:16.791Z,58.50
2018-12-29T07:08:16.780Z,57.90
2018-12-29T07:09:16.770Z,54.20
2018-12-29T07:10:16.760Z,58.20
2018-12-29T07:11:16.763Z,58.10
2018-12-29T07:12:16.737Z,57.40
2018-12-29T07:13:16.726Z,57.90
2018-12-29T07:14:16.719Z,56.80
2018-12-29T07:15:16.707Z,54.80
2018-12-29T07:16:16.740Z,53.90
2018-12-29T07:17:16.684Z,57.80
2018-12-29T07:18:16.672Z,57.40
2018-12-29T07:19:16.660Z,54.50
2018-12-29T07:20:16.652Z,52.90
2018-12-29T07:21:16.655Z,52.50
2018-12-29T07:22:16.660Z,56.30
2018-12-29T07:23:16.619Z,55.80
2018-12-29T07:24:16.606Z,52.10
2018-12-29T07:25:16.604Z,51.50
2018-12-29T07:26:16.584Z,55.30
2018-12-29T07:27:16.588Z,56.50
2018-12-29T07:28:16.565Z,57.40
2018-12-29T07:29:16.554Z,58.60
2018-12-29T07:30:16.542Z,53.40
2018-12-29T07:31:16.532Z,59.20
2018-12-29T07:32:16.538Z,56.20
2018-12-29T07:33:16.571Z,56.80
2018-12-29T07:34:16.500Z,54.00
2018-12-29T07:35:16.892Z,55.80
2018-12-29T07:36:16.480Z,55.20
2018-12-29T07:37:16.479Z,54.30
2018-12-29T07:38:16.457Z,63.90
2018-12-29T07:39:16.446Z,59.70
2018-12-29T07:40:16.433Z,57.00
2018-12-29T07:41:16.431Z,56.10
2018-12-29T07:42:16.422Z,58.90
2018-12-29T07:43:16.402Z,53.80
2018-12-29T07:44:16.392Z,55.90
2018-12-29T07:45:16.381Z,57.10
2018-12-29T07:46:16.370Z,57.00
2018-12-29T07:47:16.367Z,59.00
2018-12-29T07:48:16.345Z,56.30
2018-12-29T07:49:16.336Z,59.90
2018-12-29T07:50:16.329Z,57.20
2018-12-29T07:51:16.313Z,58.20
2018-12-29T07:52:16.319Z,57.10
2018-12-29T07:53:16.294Z,57.10
2018-12-29T07:54:16.282Z,55.50
2018-12-29T07:55:16.274Z,58.40
2018-12-29T07:56:16.259Z,56.90
2018-12-29T07:57:16.288Z,58.30
2018-12-29T07:58:16.240Z,55.40
2018-12-29T07:59:16.243Z,57.30
2018-12-29T08:00:16.219Z,57.30
2018-12-29T08:01:16.214Z,52.00
2018-12-29T08:02:16.199Z,50.40
2018-12-29T08:03:16.200Z,54.20
2018-12-29T08:04:16.175Z,55.20
2018-12-29T08:05:16.163Z,53.40
2018-12-29T08:06:16.161Z,50.20
2018-12-29T08:07:16.142Z,50.40
2018-12-29T08:08:16.157Z,51.00
2018-12-29T08:09:16.148Z,51.60
2018-12-29T08:10:16.114Z,51.70
2018-12-29T08:11:16.104Z,48.00
2018-12-29T08:12:16.088Z,54.00
2018-12-29T08:13:16.088Z,49.50
2018-12-29T08:14:16.075Z,55.10
2018-12-29T08:15:16.059Z,49.90
2018-12-29T08:16:16.045Z,52.20
2018-12-29T08:17:17.408Z,47.80
2018-12-29T08:18:16.035Z,50.20
2018-12-29T08:19:16.013Z,51.80
2018-12-29T08:20:16.004Z,52.90
2018-12-29T08:21:15.992Z,51.40
2018-12-29T08:22:15.981Z,50.20
2018-12-29T08:23:15.994Z,50.50
2018-12-29T08:24:15.974Z,50.80
2018-12-29T08:25:15.948Z,49.30
2018-12-29T08:26:15.944Z,51.40
2018-12-29T08:27:15.927Z,53.00
2018-12-29T08:28:15.951Z,52.80
2018-12-29T08:29:15.905Z,51.30
2018-12-29T08:30:15.898Z,51.60
2018-12-29T08:31:15.886Z,54.40
2018-12-29T08:32:15.874Z,50.40
2018-12-29T08:33:15.863Z,50.50
2018-12-29T08:34:15.863Z,48.10
2018-12-29T08:35:15.843Z,49.40
2018-12-29T08:36:15.829Z,47.00
2018-12-29T08:37:15.819Z,45.90
2018-12-29T08:38:15.807Z,49.30
2018-12-29T08:39:15.809Z,51.30
2018-12-29T08:40:15.787Z,47.00
2018-12-29T08:41:15.776Z,50.60
2018-12-29T08:42:15.788Z,49.40
2018-12-29T08:43:15.756Z,49.60
2018-12-29T08:44:15.755Z,55.50
2018-12-29T08:45:15.735Z,48.80
2018-12-29T08:46:15.721Z,51.20
2018-12-29T08:47:15.713Z,51.10
2018-12-29T08:48:15.699Z,48.90
2018-12-29T08:49:15.703Z,49.10
2018-12-29T08:50:15.679Z,50.30
2018-12-29T08:51:15.675Z,49.70
2018-12-29T08:52:15.658Z,53.60
2018-12-29T08:53:15.657Z,50.90
2018-12-29T08:54:15.641Z,53.00
2018-12-29T08:55:15.641Z,49.60
2018-12-29T08:56:15.613Z,49.50
2018-12-29T08:57:15.602Z,50.70
2018-12-29T08:58:15.598Z,47.20
2018-12-29T08:59:15.585Z,50.80
2018-12-29T09:00:15.584Z,54.70
2018-12-29T09:01:15.562Z,52.70
2018-12-29T09:02:15.552Z,49.10
2018-12-29T09:03:15.539Z,54.50
2018-12-29T09:04:15.540Z,49.90
2018-12-29T09:05:15.534Z,51.30
2018-12-29T09:06:15.507Z,47.50
2018-12-29T09:07:15.498Z,49.40
2018-12-29T09:08:15.483Z,53.50
2018-12-29T09:09:15.475Z,49.90
2018-12-29T09:10:15.477Z,50.60
2018-12-29T09:11:15.457Z,49.10
2018-12-29T09:12:15.444Z,51.30
2018-12-29T09:13:15.432Z,49.90
2018-12-29T09:14:15.421Z,49.60
2018-12-29T09:15:15.453Z,48.40
2018-12-29T09:16:15.580Z,49.80
2018-12-29T09:17:15.388Z,49.60
2018-12-29T09:18:15.383Z,51.90
2018-12-29T09:19:15.379Z,51.20
2018-12-29T09:20:15.355Z,51.30
2018-12-29T09:21:15.359Z,50.20
2018-12-29T09:22:15.336Z,52.80
2018-12-29T09:23:15.323Z,58.40
2018-12-29T09:24:15.314Z,54.30
2018-12-29T09:25:15.308Z,55.30
2018-12-29T09:26:15.317Z,53.40
2018-12-29T09:27:15.294Z,53.80
2018-12-29T09:28:15.277Z,51.70
2018-12-29T09:29:15.259Z,49.10
2018-12-29T09:30:15.255Z,48.60
2018-12-29T09:31:15.257Z,46.90
2018-12-29T09:32:15.230Z,46.70
2018-12-29T09:33:15.226Z,46.20
2018-12-29T09:34:22.263Z,44.10
2018-12-29T09:35:16.196Z,49.80
2018-12-29T09:36:15.196Z,44.20
2018-12-29T09:37:15.177Z,44.80
2018-12-29T09:38:15.165Z,48.40
2018-12-29T09:39:15.158Z,43.20
2018-12-29T09:40:15.145Z,41.80
2018-12-29T09:41:15.146Z,45.80
2018-12-29T09:42:15.123Z,39.90
2018-12-29T09:43:15.115Z,43.20
2018-12-29T09:44:15.104Z,40.60
2018-12-29T09:45:15.092Z,38.40
2018-12-29T09:46:15.113Z,43.30
2018-12-29T09:47:19.573Z,40.90
2018-12-29T09:48:15.057Z,40.90
2018-12-29T09:49:15.052Z,41.80
2018-12-29T09:50:15.039Z,38.20
2018-12-29T09:51:15.045Z,38.40
2018-12-29T09:52:15.014Z,39.10
2018-12-29T09:53:15.005Z,39.20
2018-12-29T09:54:14.996Z,36.90
2018-12-29T09:55:14.986Z,38.00
2018-12-29T09:56:15.010Z,35.40
2018-12-29T09:57:14.962Z,37.50
2018-12-29T09:58:14.955Z,37.80
2018-12-29T09:59:14.944Z,36.10
2018-12-29T10:00:14.934Z,38.80
2018-12-29T10:01:14.919Z,37.80
2018-12-29T10:02:14.925Z,43.00
2018-12-29T10:03:14.906Z,40.00
2018-12-29T10:04:14.888Z,35.30
2018-12-29T10:05:14.876Z,37.50
2018-12-29T10:06:14.871Z,40.00
2018-12-29T10:07:14.871Z,38.50
2018-12-29T10:08:14.847Z,37.40
2018-12-29T10:09:14.836Z,42.90
2018-12-29T10:10:14.823Z,36.50
2018-12-29T10:11:14.814Z,36.60
2018-12-29T10:12:14.815Z,37.70
2018-12-29T10:13:14.793Z,36.40
2018-12-29T10:14:14.785Z,41.30
2018-12-29T10:15:14.772Z,40.30
2018-12-29T10:16:14.762Z,39.00
2018-12-29T10:17:14.764Z,37.40
2018-12-29T10:18:14.744Z,41.80
2018-12-29T10:19:14.735Z,37.00
2018-12-29T10:20:14.717Z,38.30
2018-12-29T10:21:14.713Z,39.30
2018-12-29T10:22:14.715Z,40.70
2018-12-29T10:23:14.687Z,38.30
2018-12-29T10:24:14.676Z,36.10
2018-12-29T10:25:14.663Z,40.00
2018-12-29T10:26:14.654Z,40.30
2018-12-29T10:27:15.029Z,41.40
2018-12-29T10:28:14.638Z,41.30
2018-12-29T10:29:14.624Z,39.20
2018-12-29T10:30:14.611Z,37.00
2018-12-29T10:31:14.607Z,37.00
2018-12-29T10:32:14.594Z,38.10
2018-12-29T10:33:14.590Z,35.10
2018-12-29T10:34:14.739Z,37.30
2018-12-29T10:35:14.622Z,35.70
2018-12-29T10:36:14.549Z,35.80
2018-12-29T10:37:14.597Z,37.90
2018-12-29T10:38:14.579Z,39.10
2018-12-29T10:39:14.711Z,35.80
2018-12-29T10:40:14.586Z,33.00
2018-12-29T10:41:14.548Z,36.60
2018-12-29T10:42:14.486Z,36.40
2018-12-29T10:43:14.487Z,34.30
2018-12-29T10:44:14.463Z,33.70
2018-12-29T10:45:14.552Z,35.50
2018-12-29T10:46:14.440Z,37.50
2018-12-29T10:47:14.436Z,38.50
2018-12-29T10:48:14.433Z,39.40
2018-12-29T10:49:14.411Z,37.00
2018-12-29T10:50:14.400Z,37.50
2018-12-29T10:51:14.388Z,38.60
2018-12-29T10:52:14.377Z,35.20
2018-12-29T10:53:14.379Z,37.80
2018-12-29T10:54:14.358Z,37.20
2018-12-29T10:55:14.380Z,39.60
2018-12-29T10:56:14.346Z,37.40
2018-12-29T10:57:14.352Z,40.60
2018-12-29T10:58:14.355Z,40.30
2018-12-29T10:59:14.308Z,42.70
2018-12-29T11:00:14.299Z,39.70
2018-12-29T11:01:14.286Z,39.40
2018-12-29T11:02:14.274Z,39.20
2018-12-29T11:03:14.263Z,40.80
2018-12-29T11:04:14.299Z,38.50
2018-12-29T11:05:14.249Z,41.30
2018-12-29T11:06:14.232Z,38.80
2018-12-29T11:07:14.221Z,39.00
2018-12-29T11:08:14.212Z,36.50
2018-12-29T11:09:14.212Z,40.00
2018-12-29T11:10:14.187Z,37.80
2018-12-29T11:11:14.177Z,34.60
2018-12-29T11:12:14.170Z,34.60
2018-12-29T11:13:14.154Z,36.70
2018-12-29T11:14:14.153Z,37.50
2018-12-29T11:15:14.133Z,34.20
2018-12-29T11:16:14.121Z,39.00
2018-12-29T11:17:14.116Z,37.90
2018-12-29T11:18:14.103Z,37.70
2018-12-29T11:19:14.124Z,34.70
2018-12-29T11:20:14.079Z,38.20
2018-12-29T11:21:14.071Z,35.10
2018-12-29T11:22:14.061Z,36.00
2018-12-29T11:23:14.055Z,35.60
2018-12-29T11:24:14.050Z,32.50
2018-12-29T11:25:14.043Z,34.00
2018-12-29T11:26:14.015Z,34.50
2018-12-29T11:27:14.005Z,38.30
2018-12-29T11:28:13.996Z,36.60
2018-12-29T11:29:14.016Z,35.90
2018-12-29T11:30:13.984Z,36.30
2018-12-29T11:31:13.965Z,38.20
2018-12-29T11:32:13.951Z,35.90
2018-12-29T11:33:13.941Z,37.50
2018-12-29T11:34:13.951Z,38.90
2018-12-29T11:35:13.921Z,38.60
2018-12-29T11:36:13.929Z,40.20
2018-12-29T11:37:13.898Z,39.80
2018-12-29T11:38:13.910Z,39.00
2018-12-29T11:39:13.912Z,40.10
2018-12-29T11:40:13.869Z,35.60
2018-12-29T11:41:13.896Z,38.50
2018-12-29T11:42:13.847Z,41.20
2018-12-29T11:43:13.842Z,39.50
2018-12-29T11:44:13.830Z,37.30
2018-12-29T11:45:13.827Z,39.70
2018-12-29T11:46:13.805Z,40.50
2018-12-29T11:47:13.796Z,37.40
2018-12-29T11:48:13.790Z,38.10
2018-12-29T11:49:18.075Z,40.00
2018-12-29T11:50:13.773Z,38.40
2018-12-29T11:51:13.836Z,40.00
2018-12-29T11:52:13.740Z,39.00
2018-12-29T11:53:13.730Z,37.10
2018-12-29T11:54:13.722Z,39.40
2018-12-29T11:55:13.791Z,37.40
2018-12-29T11:56:13.698Z,38.30
2018-12-29T11:57:13.685Z,37.10
2018-12-29T11:58:13.687Z,39.50
2018-12-29T11:59:13.667Z,39.70
2018-12-29T12:00:13.661Z,36.30
2018-12-29T12:01:14.794Z,36.70
2018-12-29T12:02:13.634Z,37.80
2018-12-29T12:03:13.621Z,39.80
2018-12-29T12:04:13.612Z,38.60
2018-12-29T12:05:13.603Z,38.60
2018-12-29T12:06:13.603Z,36.70
2018-12-29T12:07:13.579Z,39.20
2018-12-29T12:08:13.573Z,36.30
2018-12-29T12:09:13.561Z,40.70
2018-12-29T12:10:13.550Z,37.30
2018-12-29T12:11:13.549Z,39.90
2018-12-29T12:12:13.525Z,38.40
2018-12-29T12:13:13.520Z,39.70
2018-12-29T12:14:13.507Z,38.40
2018-12-29T12:15:13.498Z,39.10
2018-12-29T12:16:13.498Z,37.70
2018-12-29T12:17:13.472Z,37.40
2018-12-29T12:18:13.462Z,39.00
2018-12-29T12:19:13.460Z,40.20
2018-12-29T12:20:13.439Z,40.40
2018-12-29T12:21:13.446Z,37.90
2018-12-29T12:22:13.419Z,41.30
2018-12-29T12:23:13.412Z,39.40
2018-12-29T12:24:13.397Z,40.10
2018-12-29T12:25:13.384Z,40.70
2018-12-29T12:26:13.387Z,39.00
2018-12-29T12:27:13.386Z,38.70
2018-12-29T12:28:13.373Z,39.40
2018-12-29T12:29:13.345Z,38.10
2018-12-29T12:30:13.333Z,40.40
2018-12-29T12:31:13.382Z,39.20
2018-12-29T12:32:13.315Z,40.30
2018-12-29T12:33:13.299Z,38.80
2018-12-29T12:34:13.322Z,40.90
2018-12-29T12:35:13.282Z,37.00
2018-12-29T12:36:13.268Z,36.50
2018-12-29T12:37:13.301Z,37.10
2018-12-29T12:38:13.248Z,37.60
2018-12-29T12:39:13.241Z,37.20
2018-12-29T12:40:13.230Z,34.90
2018-12-29T12:41:13.216Z,38.10
2018-12-29T12:42:13.229Z,36.50
2018-12-29T12:43:13.195Z,36.40
2018-12-29T12:44:13.182Z,35.60
2018-12-29T12:45:13.175Z,35.70
2018-12-29T12:46:13.160Z,35.20
2018-12-29T12:47:13.165Z,36.10
2018-12-29T12:48:13.143Z,36.40
2018-12-29T12:49:13.132Z,35.20
2018-12-29T12:50:13.123Z,36.60
2018-12-29T12:51:13.110Z,34.30
2018-12-29T12:52:13.123Z,34.10